sensor_id;sensor_type;location;lat;lon;timestamp;temperature;humidity
75010;DHT22;63564;46.840;18.336;2023-04-03T00:01:37;5.36;73.01
75010;DHT22;63564;46.840;18.336;2023-04-03T00:04:38;5.42;72.59
75010;DHT22;63564;46.840;18.336;2023-04-03T00:07:38;5.38;72.09
75010;DHT22;63564;46.840;18.336;2023-04-03T00:10:39;5.40;71.90
75010;DHT22;63564;46.840;18.336;2023-04-03T00:13:40;5.38;72.38
75010;DHT22;63564;46.840;18.336;2023-04-03T00:16:41;5.38;72.15
75010;DHT22;63564;46.840;18.336;2023-04-03T00:19:41;5.29;72.26
75010;DHT22;63564;46.840;18.336;2023-04-03T00:22:42;5.31;73.15
75010;DHT22;63564;46.840;18.336;2023-04-03T00:25:43;5.35;72.38
75010;DHT22;63564;46.840;18.336;2023-04-03T00:28:43;5.25;72.62
75010;DHT22;63564;46.840;18.336;2023-04-03T00:31:44;5.29;72.59
75010;DHT22;63564;46.840;18.336;2023-04-03T00:34:44;5.29;72.34
75010;DHT22;63564;46.840;18.336;2023-04-03T00:37:45;5.27;73.13
75010;DHT22;63564;46.840;18.336;2023-04-03T00:40:47;5.31;72.60
75010;DHT22;63564;46.840;18.336;2023-04-03T00:43:48;5.24;72.96
75010;DHT22;63564;46.840;18.336;2023-04-03T00:46:48;5.20;73.15
75010;DHT22;63564;46.840;18.336;2023-04-03T00:49:49;5.28;72.68
75010;DHT22;63564;46.840;18.336;2023-04-03T00:52:50;5.24;72.74
75010;DHT22;63564;46.840;18.336;2023-04-03T00:55:53;5.24;73.30
75010;DHT22;63564;46.840;18.336;2023-04-03T00:59:20;5.25;73.17
75010;DHT22;63564;46.840;18.336;2023-04-03T01:02:21;5.25;72.50
75010;DHT22;63564;46.840;18.336;2023-04-03T01:05:22;5.27;73.05
75010;DHT22;63564;46.840;18.336;2023-04-03T01:08:22;5.22;73.02
75010;DHT22;63564;46.840;18.336;2023-04-03T01:11:23;5.31;71.98
75010;DHT22;63564;46.840;18.336;2023-04-03T01:14:24;5.27;71.78
75010;DHT22;63564;46.840;18.336;2023-04-03T01:17:34;5.25;73.07
75010;DHT22;63564;46.840;18.336;2023-04-03T01:24:36;5.25;72.40
75010;DHT22;63564;46.840;18.336;2023-04-03T01:27:38;5.25;72.02
75010;DHT22;63564;46.840;18.336;2023-04-03T01:30:56;5.32;72.40
75010;DHT22;63564;46.840;18.336;2023-04-03T01:33:57;5.25;73.52
75010;DHT22;63564;46.840;18.336;2023-04-03T01:36:58;5.28;72.57
75010;DHT22;63564;46.840;18.336;2023-04-03T01:39:58;5.24;72.44
75010;DHT22;63564;46.840;18.336;2023-04-03T01:42:58;5.27;72.55
75010;DHT22;63564;46.840;18.336;2023-04-03T01:45:59;5.22;71.93
75010;DHT22;63564;46.840;18.336;2023-04-03T01:49:00;5.25;72.28
75010;DHT22;63564;46.840;18.336;2023-04-03T01:52:00;5.24;72.54
75010;DHT22;63564;46.840;18.336;2023-04-03T01:55:00;5.24;72.35
75010;DHT22;63564;46.840;18.336;2023-04-03T01:58:01;5.18;73.26
75010;DHT22;63564;46.840;18.336;2023-04-03T02:01:02;5.20;73.45
75010;DHT22;63564;46.840;18.336;2023-04-03T02:04:02;5.22;73.15
75010;DHT22;63564;46.840;18.336;2023-04-03T02:07:03;5.18;72.76
75010;DHT22;63564;46.840;18.336;2023-04-03T02:10:03;5.15;73.27
75010;DHT22;63564;46.840;18.336;2023-04-03T02:13:04;5.18;73.12
75010;DHT22;63564;46.840;18.336;2023-04-03T02:16:11;5.18;73.16
75010;DHT22;63564;46.840;18.336;2023-04-03T02:19:13;5.15;73.42
75010;DHT22;63564;46.840;18.336;2023-04-03T02:22:14;5.18;73.41
75010;DHT22;63564;46.840;18.336;2023-04-03T02:25:14;5.15;73.46
75010;DHT22;63564;46.840;18.336;2023-04-03T02:28:15;5.14;73.78
75010;DHT22;63564;46.840;18.336;2023-04-03T02:31:15;5.14;73.68
75010;DHT22;63564;46.840;18.336;2023-04-03T02:34:16;5.12;73.99
75010;DHT22;63564;46.840;18.336;2023-04-03T02:37:17;5.15;74.42
75010;DHT22;63564;46.840;18.336;2023-04-03T02:40:17;5.08;74.19
75010;DHT22;63564;46.840;18.336;2023-04-03T02:43:18;5.17;73.69
75010;DHT22;63564;46.840;18.336;2023-04-03T02:46:18;5.15;74.27
75010;DHT22;63564;46.840;18.336;2023-04-03T02:49:18;5.15;74.06
75010;DHT22;63564;46.840;18.336;2023-04-03T02:52:19;5.14;73.99
75010;DHT22;63564;46.840;18.336;2023-04-03T02:55:19;5.14;74.47
75010;DHT22;63564;46.840;18.336;2023-04-03T02:58:20;5.12;73.97
75010;DHT22;63564;46.840;18.336;2023-04-03T03:01:20;5.10;74.12
75010;DHT22;63564;46.840;18.336;2023-04-03T03:04:21;5.11;74.72
75010;DHT22;63564;46.840;18.336;2023-04-03T03:07:21;5.00;74.77
75010;DHT22;63564;46.840;18.336;2023-04-03T03:10:22;5.05;74.48
75010;DHT22;63564;46.840;18.336;2023-04-03T03:13:23;5.04;74.93
75010;DHT22;63564;46.840;18.336;2023-04-03T03:16:24;5.07;75.48
75010;DHT22;63564;46.840;18.336;2023-04-03T03:19:24;5.07;74.97
75010;DHT22;63564;46.840;18.336;2023-04-03T03:22:25;5.05;74.86
75010;DHT22;63564;46.840;18.336;2023-04-03T03:25:26;5.01;74.82
75010;DHT22;63564;46.840;18.336;2023-04-03T03:28:27;5.01;74.53
75010;DHT22;63564;46.840;18.336;2023-04-03T03:31:27;5.01;75.25
75010;DHT22;63564;46.840;18.336;2023-04-03T03:34:28;4.97;74.66
75010;DHT22;63564;46.840;18.336;2023-04-03T03:37:28;4.88;75.03
75010;DHT22;63564;46.840;18.336;2023-04-03T03:40:28;4.83;75.19
75010;DHT22;63564;46.840;18.336;2023-04-03T03:43:29;4.81;75.38
75010;DHT22;63564;46.840;18.336;2023-04-03T03:46:30;4.79;75.75
75010;DHT22;63564;46.840;18.336;2023-04-03T03:49:30;4.72;75.80
75010;DHT22;63564;46.840;18.336;2023-04-03T03:52:31;4.72;75.76
75010;DHT22;63564;46.840;18.336;2023-04-03T03:55:31;4.64;76.13
75010;DHT22;63564;46.840;18.336;2023-04-03T03:58:32;4.62;76.35
75010;DHT22;63564;46.840;18.336;2023-04-03T04:01:33;4.55;76.43
75010;DHT22;63564;46.840;18.336;2023-04-03T04:04:33;4.56;76.32
75010;DHT22;63564;46.840;18.336;2023-04-03T04:07:34;4.52;76.40
75010;DHT22;63564;46.840;18.336;2023-04-03T04:10:35;4.49;76.28
75010;DHT22;63564;46.840;18.336;2023-04-03T04:13:37;4.42;76.04
75010;DHT22;63564;46.840;18.336;2023-04-03T04:16:37;4.34;76.66
75010;DHT22;63564;46.840;18.336;2023-04-03T04:19:38;4.28;76.84
75010;DHT22;63564;46.840;18.336;2023-04-03T04:22:38;4.18;77.98
75010;DHT22;63564;46.840;18.336;2023-04-03T04:25:39;4.19;77.84
75010;DHT22;63564;46.840;18.336;2023-04-03T04:28:40;4.19;77.42
75010;DHT22;63564;46.840;18.336;2023-04-03T04:31:40;4.19;77.90
75010;DHT22;63564;46.840;18.336;2023-04-03T04:34:40;4.26;76.84
75010;DHT22;63564;46.840;18.336;2023-04-03T04:37:41;4.31;77.37
75010;DHT22;63564;46.840;18.336;2023-04-03T04:40:41;4.38;77.09
75010;DHT22;63564;46.840;18.336;2023-04-03T04:43:42;4.45;77.07
75010;DHT22;63564;46.840;18.336;2023-04-03T04:46:42;4.42;78.13
75010;DHT22;63564;46.840;18.336;2023-04-03T04:49:43;4.45;77.59
75010;DHT22;63564;46.840;18.336;2023-04-03T04:52:43;4.50;76.10
75010;DHT22;63564;46.840;18.336;2023-04-03T04:55:43;4.45;77.18
75010;DHT22;63564;46.840;18.336;2023-04-03T04:58:44;4.53;76.19
75010;DHT22;63564;46.840;18.336;2023-04-03T05:01:44;4.56;76.74
75010;DHT22;63564;46.840;18.336;2023-04-03T05:04:45;4.56;76.49
75010;DHT22;63564;46.840;18.336;2023-04-03T05:07:45;4.53;76.74
75010;DHT22;63564;46.840;18.336;2023-04-03T05:10:46;4.56;76.48
75010;DHT22;63564;46.840;18.336;2023-04-03T05:13:46;4.63;76.51
75010;DHT22;63564;46.840;18.336;2023-04-03T05:16:47;4.66;76.19
75010;DHT22;63564;46.840;18.336;2023-04-03T05:19:47;4.70;76.01
75010;DHT22;63564;46.840;18.336;2023-04-03T05:22:48;4.62;76.04
75010;DHT22;63564;46.840;18.336;2023-04-03T05:25:48;4.48;76.19
75010;DHT22;63564;46.840;18.336;2023-04-03T05:28:49;4.50;77.03
75010;DHT22;63564;46.840;18.336;2023-04-03T05:31:50;4.46;76.60
75010;DHT22;63564;46.840;18.336;2023-04-03T05:34:50;4.39;76.36
75010;DHT22;63564;46.840;18.336;2023-04-03T05:37:51;4.36;77.17
75010;DHT22;63564;46.840;18.336;2023-04-03T05:40:52;4.34;75.99
75010;DHT22;63564;46.840;18.336;2023-04-03T05:43:52;4.32;76.41
75010;DHT22;63564;46.840;18.336;2023-04-03T05:46:53;4.38;76.41
75010;DHT22;63564;46.840;18.336;2023-04-03T05:49:53;4.34;76.05
75010;DHT22;63564;46.840;18.336;2023-04-03T05:52:56;4.32;76.53
75010;DHT22;63564;46.840;18.336;2023-04-03T05:55:58;4.34;76.22
75010;DHT22;63564;46.840;18.336;2023-04-03T05:58:58;4.35;76.33
75010;DHT22;63564;46.840;18.336;2023-04-03T06:01:59;4.31;76.57
75010;DHT22;63564;46.840;18.336;2023-04-03T06:04:59;4.28;76.76
75010;DHT22;63564;46.840;18.336;2023-04-03T06:08:00;4.28;76.74
75010;DHT22;63564;46.840;18.336;2023-04-03T06:11:01;4.32;76.24
75010;DHT22;63564;46.840;18.336;2023-04-03T06:14:02;4.34;76.40
75010;DHT22;63564;46.840;18.336;2023-04-03T06:17:03;4.38;75.43
75010;DHT22;63564;46.840;18.336;2023-04-03T06:20:04;4.42;75.82
75010;DHT22;63564;46.840;18.336;2023-04-03T06:23:05;4.52;75.03
75010;DHT22;63564;46.840;18.336;2023-04-03T06:26:05;4.79;74.57
75010;DHT22;63564;46.840;18.336;2023-04-03T06:29:06;5.01;73.70
75010;DHT22;63564;46.840;18.336;2023-04-03T06:32:06;5.21;73.56
75010;DHT22;63564;46.840;18.336;2023-04-03T06:35:07;5.29;73.67
75010;DHT22;63564;46.840;18.336;2023-04-03T06:38:08;5.42;71.81
75010;DHT22;63564;46.840;18.336;2023-04-03T06:41:09;5.59;71.95
75010;DHT22;63564;46.840;18.336;2023-04-03T06:44:10;5.69;71.23
75010;DHT22;63564;46.840;18.336;2023-04-03T06:47:16;5.70;70.55
75010;DHT22;63564;46.840;18.336;2023-04-03T06:50:17;5.79;69.69
75010;DHT22;63564;46.840;18.336;2023-04-03T06:53:18;5.73;69.41
75010;DHT22;63564;46.840;18.336;2023-04-03T06:56:19;5.89;70.23
75010;DHT22;63564;46.840;18.336;2023-04-03T06:59:19;5.98;68.64
75010;DHT22;63564;46.840;18.336;2023-04-03T07:02:20;5.93;69.40
75010;DHT22;63564;46.840;18.336;2023-04-03T07:05:20;6.03;68.87
75010;DHT22;63564;46.840;18.336;2023-04-03T07:08:21;6.11;68.34
75010;DHT22;63564;46.840;18.336;2023-04-03T07:11:23;6.29;69.73
75010;DHT22;63564;46.840;18.336;2023-04-03T07:14:24;6.42;68.37
75010;DHT22;63564;46.840;18.336;2023-04-03T07:17:24;6.42;67.77
75010;DHT22;63564;46.840;18.336;2023-04-03T07:20:25;6.46;68.12
75010;DHT22;63564;46.840;18.336;2023-04-03T07:23:26;6.68;68.02
75010;DHT22;63564;46.840;18.336;2023-04-03T07:26:26;6.76;67.26
75010;DHT22;63564;46.840;18.336;2023-04-03T07:29:27;6.77;66.45
75010;DHT22;63564;46.840;18.336;2023-04-03T07:32:28;6.61;66.76
75010;DHT22;63564;46.840;18.336;2023-04-03T07:35:28;6.82;67.77
75010;DHT22;63564;46.840;18.336;2023-04-03T07:38:29;7.12;67.77
75010;DHT22;63564;46.840;18.336;2023-04-03T07:41:30;7.04;66.34
75010;DHT22;63564;46.840;18.336;2023-04-03T07:44:31;7.04;66.94
75010;DHT22;63564;46.840;18.336;2023-04-03T07:47:32;7.21;66.90
75010;DHT22;63564;46.840;18.336;2023-04-03T07:50:33;7.25;65.40
75010;DHT22;63564;46.840;18.336;2023-04-03T07:53:33;7.07;66.33
75010;DHT22;63564;46.840;18.336;2023-04-03T07:56:34;7.04;67.07
75010;DHT22;63564;46.840;18.336;2023-04-03T07:59:34;7.31;65.66
75010;DHT22;63564;46.840;18.336;2023-04-03T08:02:35;9.27;72.06
75010;DHT22;63564;46.840;18.336;2023-04-03T08:05:42;9.34;60.84
75010;DHT22;63564;46.840;18.336;2023-04-03T08:08:43;8.59;61.84
75010;DHT22;63564;46.840;18.336;2023-04-03T08:11:44;8.41;64.33
75010;DHT22;63564;46.840;18.336;2023-04-03T08:14:45;8.40;63.64
75010;DHT22;63564;46.840;18.336;2023-04-03T08:17:45;8.40;63.03
75010;DHT22;63564;46.840;18.336;2023-04-03T08:20:46;8.46;62.94
75010;DHT22;63564;46.840;18.336;2023-04-03T08:23:48;8.14;63.22
75010;DHT22;63564;46.840;18.336;2023-04-03T08:26:50;7.85;63.87
75010;DHT22;63564;46.840;18.336;2023-04-03T08:29:50;7.79;63.94
75010;DHT22;63564;46.840;18.336;2023-04-03T08:32:52;7.68;64.54
75010;DHT22;63564;46.840;18.336;2023-04-03T08:35:52;8.01;64.55
75010;DHT22;63564;46.840;18.336;2023-04-03T08:38:54;8.24;63.58
75010;DHT22;63564;46.840;18.336;2023-04-03T08:41:57;8.25;64.06
75010;DHT22;63564;46.840;18.336;2023-04-03T08:48:12;8.83;60.69
75010;DHT22;63564;46.840;18.336;2023-04-03T08:51:15;9.57;60.50
75010;DHT22;63564;46.840;18.336;2023-04-03T08:54:40;9.63;59.50
75010;DHT22;63564;46.840;18.336;2023-04-03T08:57:50;9.38;60.04
75010;DHT22;63564;46.840;18.336;2023-04-03T09:03:51;8.96;60.76
75010;DHT22;63564;46.840;18.336;2023-04-03T09:06:55;8.90;62.12
75010;DHT22;63564;46.840;18.336;2023-04-03T09:09:59;8.76;60.87
75010;DHT22;63564;46.840;18.336;2023-04-03T09:13:17;8.55;61.79
75010;DHT22;63564;46.840;18.336;2023-04-03T09:16:30;8.79;61.20
75010;DHT22;63564;46.840;18.336;2023-04-03T09:19:41;9.04;60.57
75010;DHT22;63564;46.840;18.336;2023-04-03T09:22:45;9.07;59.86
75010;DHT22;63564;46.840;18.336;2023-04-03T09:25:46;9.27;60.00
75010;DHT22;63564;46.840;18.336;2023-04-03T09:28:48;9.11;60.64
75010;DHT22;63564;46.840;18.336;2023-04-03T09:31:50;9.39;59.00
75010;DHT22;63564;46.840;18.336;2023-04-03T09:34:54;9.61;61.00
75010;DHT22;63564;46.840;18.336;2023-04-03T09:38:13;9.48;59.91
75010;DHT22;63564;46.840;18.336;2023-04-03T09:41:16;9.24;60.72
75010;DHT22;63564;46.840;18.336;2023-04-03T09:44:33;9.41;58.86
75010;DHT22;63564;46.840;18.336;2023-04-03T09:47:36;9.21;59.72
75010;DHT22;63564;46.840;18.336;2023-04-03T09:50:36;9.31;59.37
75010;DHT22;63564;46.840;18.336;2023-04-03T09:53:42;9.27;58.44
75010;DHT22;63564;46.840;18.336;2023-04-03T09:56:49;9.49;58.33
75010;DHT22;63564;46.840;18.336;2023-04-03T09:59:58;9.20;59.32
75010;DHT22;63564;46.840;18.336;2023-04-03T10:03:00;9.34;58.91
75010;DHT22;63564;46.840;18.336;2023-04-03T10:06:04;9.34;59.25
75010;DHT22;63564;46.840;18.336;2023-04-03T10:12:24;9.45;59.40
75010;DHT22;63564;46.840;18.336;2023-04-03T10:15:26;9.55;57.20
75010;DHT22;63564;46.840;18.336;2023-04-03T10:18:32;9.59;57.32
75010;DHT22;63564;46.840;18.336;2023-04-03T10:28:17;9.61;57.04
75010;DHT22;63564;46.840;18.336;2023-04-03T10:31:37;9.51;58.54
75010;DHT22;63564;46.840;18.336;2023-04-03T10:34:43;9.01;57.51
75010;DHT22;63564;46.840;18.336;2023-04-03T10:38:14;9.47;55.93
75010;DHT22;63564;46.840;18.336;2023-04-03T10:41:23;9.44;56.15
75010;DHT22;63564;46.840;18.336;2023-04-03T10:51:24;9.38;56.13
75010;DHT22;63564;46.840;18.336;2023-04-03T10:54:38;9.32;55.46
75010;DHT22;63564;46.840;18.336;2023-04-03T10:57:40;9.31;56.45
75010;DHT22;63564;46.840;18.336;2023-04-03T11:00:48;9.35;56.05
75010;DHT22;63564;46.840;18.336;2023-04-03T11:03:54;9.62;55.42
75010;DHT22;63564;46.840;18.336;2023-04-03T11:07:10;9.59;54.46
75010;DHT22;63564;46.840;18.336;2023-04-03T11:10:43;10.02;54.10
75010;DHT22;63564;46.840;18.336;2023-04-03T11:17:15;10.37;52.40
75010;DHT22;63564;46.840;18.336;2023-04-03T11:20:27;10.21;53.47
75010;DHT22;63564;46.840;18.336;2023-04-03T11:23:32;10.30;52.93
75010;DHT22;63564;46.840;18.336;2023-04-03T11:26:38;10.45;53.90
75010;DHT22;63564;46.840;18.336;2023-04-03T11:29:40;9.93;54.63
75010;DHT22;63564;46.840;18.336;2023-04-03T11:32:58;10.09;53.25
75010;DHT22;63564;46.840;18.336;2023-04-03T11:36:29;10.10;52.86
75010;DHT22;63564;46.840;18.336;2023-04-03T11:39:30;10.25;52.76
75010;DHT22;63564;46.840;18.336;2023-04-03T11:42:39;10.45;52.20
75010;DHT22;63564;46.840;18.336;2023-04-03T11:45:54;10.52;53.98
75010;DHT22;63564;46.840;18.336;2023-04-03T11:48:55;10.73;51.11
75010;DHT22;63564;46.840;18.336;2023-04-03T11:51:56;10.71;50.30
75010;DHT22;63564;46.840;18.336;2023-04-03T11:54:57;10.48;51.76
75010;DHT22;63564;46.840;18.336;2023-04-03T12:01:11;11.05;48.62
75010;DHT22;63564;46.840;18.336;2023-04-03T12:04:31;11.24;47.94
75010;DHT22;63564;46.840;18.336;2023-04-03T12:07:32;11.16;49.70
75010;DHT22;63564;46.840;18.336;2023-04-03T12:10:33;10.57;50.26
75010;DHT22;63564;46.840;18.336;2023-04-03T12:14:19;10.71;50.12
75010;DHT22;63564;46.840;18.336;2023-04-03T12:16:57;10.65;49.81
75010;DHT22;63564;46.840;18.336;2023-04-03T12:19:58;10.58;49.23
75010;DHT22;63564;46.840;18.336;2023-04-03T12:23:23;10.55;48.82
75010;DHT22;63564;46.840;18.336;2023-04-03T12:26:27;10.21;50.99
75010;DHT22;63564;46.840;18.336;2023-04-03T12:29:34;10.40;51.40
75010;DHT22;63564;46.840;18.336;2023-04-03T12:32:44;10.78;51.84
75010;DHT22;63564;46.840;18.336;2023-04-03T12:49:33;11.50;47.33
75010;DHT22;63564;46.840;18.336;2023-04-03T12:52:40;11.86;47.62
75010;DHT22;63564;46.840;18.336;2023-04-03T12:55:42;12.53;46.03
75010;DHT22;63564;46.840;18.336;2023-04-03T12:58:42;12.54;43.34
75010;DHT22;63564;46.840;18.336;2023-04-03T13:01:43;11.50;45.86
75010;DHT22;63564;46.840;18.336;2023-04-03T13:04:45;11.91;47.35
75010;DHT22;63564;46.840;18.336;2023-04-03T13:08:12;11.17;46.02
75010;DHT22;63564;46.840;18.336;2023-04-03T13:11:16;10.45;49.26
75010;DHT22;63564;46.840;18.336;2023-04-03T13:14:22;10.64;48.59
75010;DHT22;63564;46.840;18.336;2023-04-03T13:17:23;10.89;46.55
75010;DHT22;63564;46.840;18.336;2023-04-03T13:20:35;11.06;46.94
75010;DHT22;63564;46.840;18.336;2023-04-03T13:23:39;11.09;48.69
75010;DHT22;63564;46.840;18.336;2023-04-03T13:26:41;10.89;47.45
75010;DHT22;63564;46.840;18.336;2023-04-03T13:29:42;10.58;47.11
75010;DHT22;63564;46.840;18.336;2023-04-03T13:32:43;11.03;47.59
75010;DHT22;63564;46.840;18.336;2023-04-03T13:35:44;10.76;47.20
75010;DHT22;63564;46.840;18.336;2023-04-03T13:38:44;10.76;46.94
75010;DHT22;63564;46.840;18.336;2023-04-03T13:41:50;10.85;48.45
75010;DHT22;63564;46.840;18.336;2023-04-03T13:45:25;10.82;46.90
75010;DHT22;63564;46.840;18.336;2023-04-03T13:48:39;10.18;47.79
75010;DHT22;63564;46.840;18.336;2023-04-03T13:51:40;10.23;47.73
75010;DHT22;63564;46.840;18.336;2023-04-03T13:54:40;11.68;45.78
75010;DHT22;63564;46.840;18.336;2023-04-03T14:04:21;11.60;44.26
75010;DHT22;63564;46.840;18.336;2023-04-03T14:07:22;11.24;43.85
75010;DHT22;63564;46.840;18.336;2023-04-03T14:10:23;11.60;45.23
75010;DHT22;63564;46.840;18.336;2023-04-03T14:13:24;11.73;44.76
75010;DHT22;63564;46.840;18.336;2023-04-03T14:16:27;12.71;40.39
75010;DHT22;63564;46.840;18.336;2023-04-03T14:19:34;11.15;44.16
75010;DHT22;63564;46.840;18.336;2023-04-03T14:22:35;11.91;41.69
75010;DHT22;63564;46.840;18.336;2023-04-03T14:25:37;10.65;46.46
75010;DHT22;63564;46.840;18.336;2023-04-03T14:28:37;10.67;45.69
75010;DHT22;63564;46.840;18.336;2023-04-03T14:31:42;10.29;45.99
75010;DHT22;63564;46.840;18.336;2023-04-03T14:34:44;11.71;43.16
75010;DHT22;63564;46.840;18.336;2023-04-03T14:37:45;10.50;46.65
75010;DHT22;63564;46.840;18.336;2023-04-03T14:40:46;10.36;46.38
75010;DHT22;63564;46.840;18.336;2023-04-03T14:43:46;10.40;45.27
75010;DHT22;63564;46.840;18.336;2023-04-03T14:46:47;11.53;42.70
75010;DHT22;63564;46.840;18.336;2023-04-03T14:49:47;10.67;42.77
75010;DHT22;63564;46.840;18.336;2023-04-03T14:52:50;10.47;45.40
75010;DHT22;63564;46.840;18.336;2023-04-03T14:55:51;10.85;44.58
75010;DHT22;63564;46.840;18.336;2023-04-03T14:58:58;10.31;45.06
75010;DHT22;63564;46.840;18.336;2023-04-03T15:01:59;10.18;46.64
75010;DHT22;63564;46.840;18.336;2023-04-03T15:05:01;9.59;47.40
75010;DHT22;63564;46.840;18.336;2023-04-03T15:08:03;9.19;47.59
75010;DHT22;63564;46.840;18.336;2023-04-03T15:11:03;8.97;48.71
75010;DHT22;63564;46.840;18.336;2023-04-03T15:14:04;8.93;47.71
75010;DHT22;63564;46.840;18.336;2023-04-03T15:17:05;8.58;48.38
75010;DHT22;63564;46.840;18.336;2023-04-03T15:20:17;8.46;48.48
75010;DHT22;63564;46.840;18.336;2023-04-03T15:23:19;8.48;48.15
75010;DHT22;63564;46.840;18.336;2023-04-03T15:26:19;8.40;47.93
75010;DHT22;63564;46.840;18.336;2023-04-03T15:29:20;8.31;48.25
75010;DHT22;63564;46.840;18.336;2023-04-03T15:32:21;8.23;47.49
75010;DHT22;63564;46.840;18.336;2023-04-03T15:35:21;8.59;48.10
75010;DHT22;63564;46.840;18.336;2023-04-03T15:38:22;8.40;49.17
75010;DHT22;63564;46.840;18.336;2023-04-03T15:41:22;8.20;47.76
75010;DHT22;63564;46.840;18.336;2023-04-03T15:44:23;8.03;48.61
75010;DHT22;63564;46.840;18.336;2023-04-03T15:47:24;7.80;48.78
75010;DHT22;63564;46.840;18.336;2023-04-03T15:50:25;7.76;48.83
75010;DHT22;63564;46.840;18.336;2023-04-03T15:53:26;7.54;49.47
75010;DHT22;63564;46.840;18.336;2023-04-03T15:56:26;7.48;48.57
75010;DHT22;63564;46.840;18.336;2023-04-03T15:59:27;7.38;50.03
75010;DHT22;63564;46.840;18.336;2023-04-03T16:02:29;7.28;49.70
75010;DHT22;63564;46.840;18.336;2023-04-03T16:05:29;7.25;49.95
75010;DHT22;63564;46.840;18.336;2023-04-03T16:08:30;7.10;48.18
75010;DHT22;63564;46.840;18.336;2023-04-03T16:11:32;7.03;48.08
75010;DHT22;63564;46.840;18.336;2023-04-03T16:14:32;7.01;48.89
75010;DHT22;63564;46.840;18.336;2023-04-03T16:17:34;7.03;49.39
75010;DHT22;63564;46.840;18.336;2023-04-03T16:20:35;7.03;49.03
75010;DHT22;63564;46.840;18.336;2023-04-03T16:23:36;7.00;48.28
75010;DHT22;63564;46.840;18.336;2023-04-03T16:26:36;6.97;48.10
75010;DHT22;63564;46.840;18.336;2023-04-03T16:29:37;6.93;48.03
75010;DHT22;63564;46.840;18.336;2023-04-03T16:32:38;6.86;48.02
75010;DHT22;63564;46.840;18.336;2023-04-03T16:35:39;6.82;47.97
75010;DHT22;63564;46.840;18.336;2023-04-03T16:38:42;6.72;48.17
75010;DHT22;63564;46.840;18.336;2023-04-03T16:41:42;6.69;49.04
75010;DHT22;63564;46.840;18.336;2023-04-03T16:44:43;6.71;48.15
75010;DHT22;63564;46.840;18.336;2023-04-03T16:47:43;6.73;49.16
75010;DHT22;63564;46.840;18.336;2023-04-03T16:50:48;6.75;50.03
75010;DHT22;63564;46.840;18.336;2023-04-03T16:53:49;6.68;49.72
75010;DHT22;63564;46.840;18.336;2023-04-03T16:56:49;6.68;48.79
75010;DHT22;63564;46.840;18.336;2023-04-03T16:59:50;6.65;47.37
75010;DHT22;63564;46.840;18.336;2023-04-03T17:02:51;6.66;45.84
75010;DHT22;63564;46.840;18.336;2023-04-03T17:05:51;6.69;43.20
75010;DHT22;63564;46.840;18.336;2023-04-03T17:08:52;6.69;44.37
75010;DHT22;63564;46.840;18.336;2023-04-03T17:11:52;6.63;44.00
75010;DHT22;63564;46.840;18.336;2023-04-03T17:14:53;6.59;44.58
75010;DHT22;63564;46.840;18.336;2023-04-03T17:17:54;6.53;44.35
75010;DHT22;63564;46.840;18.336;2023-04-03T17:20:55;6.50;43.70
75010;DHT22;63564;46.840;18.336;2023-04-03T17:23:59;6.48;43.97
75010;DHT22;63564;46.840;18.336;2023-04-03T17:27:01;6.49;43.72
75010;DHT22;63564;46.840;18.336;2023-04-03T17:30:02;6.49;43.55
75010;DHT22;63564;46.840;18.336;2023-04-03T17:33:03;6.49;43.87
75010;DHT22;63564;46.840;18.336;2023-04-03T17:36:04;6.46;44.07
75010;DHT22;63564;46.840;18.336;2023-04-03T17:39:05;6.49;44.58
75010;DHT22;63564;46.840;18.336;2023-04-03T17:42:06;6.42;45.05
75010;DHT22;63564;46.840;18.336;2023-04-03T17:45:07;6.48;43.85
75010;DHT22;63564;46.840;18.336;2023-04-03T17:48:07;6.39;43.86
75010;DHT22;63564;46.840;18.336;2023-04-03T17:51:11;6.39;44.59
75010;DHT22;63564;46.840;18.336;2023-04-03T17:54:12;6.39;42.99
75010;DHT22;63564;46.840;18.336;2023-04-03T17:57:13;6.34;44.27
75010;DHT22;63564;46.840;18.336;2023-04-03T18:00:14;6.34;44.24
75010;DHT22;63564;46.840;18.336;2023-04-03T18:03:15;6.25;44.95
75010;DHT22;63564;46.840;18.336;2023-04-03T18:06:19;6.29;44.49
75010;DHT22;63564;46.840;18.336;2023-04-03T18:09:32;6.28;43.64
75010;DHT22;63564;46.840;18.336;2023-04-03T18:12:34;6.24;44.22
75010;DHT22;63564;46.840;18.336;2023-04-03T18:15:35;6.21;43.51
75010;DHT22;63564;46.840;18.336;2023-04-03T18:18:38;6.17;43.76
75010;DHT22;63564;46.840;18.336;2023-04-03T18:21:39;6.10;44.35
75010;DHT22;63564;46.840;18.336;2023-04-03T18:24:40;6.08;45.66
75010;DHT22;63564;46.840;18.336;2023-04-03T18:27:43;6.01;46.29
75010;DHT22;63564;46.840;18.336;2023-04-03T18:30:46;6.03;46.09
75010;DHT22;63564;46.840;18.336;2023-04-03T18:33:49;6.03;45.82
75010;DHT22;63564;46.840;18.336;2023-04-03T18:36:53;5.94;46.70
75010;DHT22;63564;46.840;18.336;2023-04-03T18:39:54;5.94;47.43
75010;DHT22;63564;46.840;18.336;2023-04-03T18:42:55;5.90;48.15
75010;DHT22;63564;46.840;18.336;2023-04-03T18:45:56;5.83;47.30
75010;DHT22;63564;46.840;18.336;2023-04-03T18:48:58;5.85;48.06
75010;DHT22;63564;46.840;18.336;2023-04-03T18:52:01;5.76;48.37
75010;DHT22;63564;46.840;18.336;2023-04-03T18:55:02;5.73;48.68
75010;DHT22;63564;46.840;18.336;2023-04-03T18:58:03;5.67;49.42
75010;DHT22;63564;46.840;18.336;2023-04-03T19:01:09;5.71;48.56
75010;DHT22;63564;46.840;18.336;2023-04-03T19:04:11;5.66;48.89
75010;DHT22;63564;46.840;18.336;2023-04-03T19:07:12;5.63;49.38
75010;DHT22;63564;46.840;18.336;2023-04-03T19:10:15;5.55;49.55
75010;DHT22;63564;46.840;18.336;2023-04-03T19:13:16;5.59;49.71
75010;DHT22;63564;46.840;18.336;2023-04-03T19:16:17;5.50;50.21
75010;DHT22;63564;46.840;18.336;2023-04-03T19:19:18;5.49;50.41
75010;DHT22;63564;46.840;18.336;2023-04-03T19:22:19;5.45;50.76
75010;DHT22;63564;46.840;18.336;2023-04-03T19:25:20;5.42;51.03
75010;DHT22;63564;46.840;18.336;2023-04-03T19:28:21;5.38;51.79
75010;DHT22;63564;46.840;18.336;2023-04-03T19:31:22;5.32;51.04
75010;DHT22;63564;46.840;18.336;2023-04-03T19:34:24;5.32;51.50
75010;DHT22;63564;46.840;18.336;2023-04-03T19:37:26;5.31;51.00
75010;DHT22;63564;46.840;18.336;2023-04-03T19:40:28;5.21;51.16
75010;DHT22;63564;46.840;18.336;2023-04-03T19:43:29;5.24;51.09
75010;DHT22;63564;46.840;18.336;2023-04-03T19:46:30;5.17;51.32
75010;DHT22;63564;46.840;18.336;2023-04-03T19:49:30;5.17;51.55
75010;DHT22;63564;46.840;18.336;2023-04-03T19:52:31;5.10;52.51
75010;DHT22;63564;46.840;18.336;2023-04-03T19:55:32;5.08;51.98
75010;DHT22;63564;46.840;18.336;2023-04-03T19:58:35;5.10;51.94
75010;DHT22;63564;46.840;18.336;2023-04-03T20:01:37;5.04;52.58
75010;DHT22;63564;46.840;18.336;2023-04-03T20:04:38;5.01;52.68